createdAt,value
2022-11-17T06:05:32.740Z,100144.22
2022-11-17T06:10:53.898Z,100123.66
2022-11-17T06:16:20.702Z,100111.09
2022-11-17T06:22:09.772Z,100098.97
2022-11-17T06:27:22.918Z,100102.16
2022-11-17T06:32:45.468Z,100098.28
2022-11-17T06:38:07.072Z,100108.56
2022-11-17T06:43:28.194Z,100098.28
2022-11-17T06:48:49.379Z,100106.56
2022-11-17T06:54:12.340Z,100093.75
2022-11-17T06:59:33.732Z,100102.25
2022-11-17T07:04:54.443Z,100111.31
2022-11-17T07:10:15.164Z,100103.94
2022-11-17T07:15:35.931Z,100100.41
2022-11-17T07:21:02.205Z,100104.47
2022-11-17T07:26:23.137Z,100103.69
2022-11-17T07:31:43.882Z,100096.00
2022-11-17T07:37:04.688Z,100097.75
2022-11-17T07:42:25.408Z,100093.53
2022-11-17T07:47:54.229Z,100082.75
2022-11-17T07:53:15.669Z,100069.84
2022-11-17T07:58:38.130Z,100085.38
2022-11-17T08:03:59.645Z,100084.50
2022-11-17T08:09:20.546Z,100091.91
2022-11-17T08:14:41.401Z,100090.25
2022-11-17T08:20:03.721Z,100090.91
2022-11-17T08:25:26.940Z,100098.19
2022-11-17T08:30:48.294Z,100100.75
2022-11-17T08:36:10.219Z,100105.25
2022-11-17T08:41:31.800Z,100091.91
2022-11-17T08:46:53.105Z,100094.53
2022-11-17T08:52:13.883Z,100100.63
2022-11-17T08:57:35.029Z,100089.28
2022-11-17T09:02:55.791Z,100090.72
2022-11-17T09:08:44.005Z,100081.66
2022-11-17T09:13:57.930Z,100089.59
2022-11-17T09:19:19.553Z,100080.69
2022-11-17T09:24:40.760Z,100077.38
2022-11-17T09:30:01.749Z,100085.88
2022-11-17T09:35:22.808Z,100081.56
2022-11-17T09:40:43.983Z,100093.38
2022-11-17T09:46:13.623Z,100088.19
2022-11-17T09:51:37.577Z,100081.00
2022-11-17T09:56:59.364Z,100088.19
2022-11-17T10:02:20.435Z,100083.97
2022-11-17T10:07:48.165Z,100077.25
2022-11-17T10:13:32.783Z,100076.81
2022-11-17T10:18:53.892Z,100068.88
2022-11-17T10:24:35.363Z,100086.97
2022-11-17T10:30:00.235Z,100068.31
2022-11-17T10:35:23.038Z,100060.28
2022-11-17T10:40:44.030Z,100053.84
2022-11-17T10:46:16.604Z,100048.13
2022-11-17T10:51:37.792Z,100045.78
2022-11-17T10:57:01.358Z,100049.66
2022-11-17T11:02:35.420Z,100042.81
2022-11-17T11:08:18.189Z,100036.41
2022-11-17T11:13:52.193Z,100031.09
2022-11-17T11:19:15.648Z,100039.16
2022-11-17T11:24:53.916Z,100024.47
2022-11-17T11:30:19.479Z,100028.25
2022-11-17T11:36:05.049Z,100035.06
2022-11-17T11:41:31.756Z,100025.59
2022-11-17T11:46:56.934Z,100013.34
2022-11-17T11:52:21.715Z,100013.22
2022-11-17T11:57:53.363Z,100010.59
2022-11-17T12:03:25.406Z,99986.34
2022-11-17T12:08:59.355Z,100002.72
2022-11-17T12:14:24.220Z,99990.78
2022-11-17T12:19:55.493Z,99992.53
2022-11-17T12:25:46.835Z,99979.03
2022-11-17T12:31:43.203Z,99990.25
2022-11-17T12:37:15.268Z,99982.97
2022-11-17T12:42:37.001Z,99984.25
2022-11-17T12:48:26.495Z,99981.47
2022-11-17T12:53:52.293Z,99985.06
2022-11-17T12:59:43.485Z,99975.34
2022-11-17T13:05:21.891Z,99981.63
2022-11-17T13:10:43.031Z,99988.75
2022-11-17T13:16:04.790Z,99985.75
2022-11-17T13:21:25.621Z,99984.41
2022-11-17T13:26:59.267Z,99981.75
2022-11-17T13:32:24.012Z,99979.19
2022-11-17T13:37:45.139Z,99976.53
2022-11-17T13:43:11.015Z,99978.06
2022-11-17T13:48:41.582Z,99978.06
2022-11-17T13:54:13.695Z,99970.34
2022-11-17T13:59:37.915Z,99974.19
2022-11-17T14:05:10.915Z,99967.88
2022-11-17T14:10:36.206Z,99978.41
2022-11-17T14:15:59.768Z,99975.66
2022-11-17T14:21:20.703Z,99983.78
2022-11-17T14:26:44.747Z,99974.03
2022-11-17T14:32:05.623Z,99972.91
2022-11-17T14:37:29.223Z,99970.25
2022-11-17T14:42:50.252Z,99980.38
2022-11-17T14:48:16.158Z,99979.53
2022-11-17T14:53:42.023Z,99987.19
2022-11-17T14:59:03.344Z,99977.44
2022-11-17T15:10:06.446Z,99986.75
2022-11-17T15:15:28.304Z,99975.81
2022-11-17T15:20:59.704Z,99982.47
2022-11-17T15:26:23.794Z,99971.88
2022-11-17T15:31:44.804Z,99968.00
2022-11-17T15:37:05.862Z,99970.59
2022-11-17T15:42:26.677Z,99973.88
2022-11-17T15:47:47.557Z,99961.81
2022-11-17T15:53:08.423Z,99968.94
2022-11-17T15:58:29.384Z,99960.09
2022-11-17T16:03:51.041Z,99966.44
2022-11-17T16:09:13.132Z,99960.50
2022-11-17T16:14:34.177Z,99957.84
2022-11-17T16:19:55.228Z,99951.00
2022-11-17T16:25:16.285Z,99953.53
2022-11-17T16:30:37.432Z,99950.88
2022-11-17T16:36:04.916Z,99937.13
2022-11-17T16:41:37.209Z,99936.13
2022-11-17T16:46:58.293Z,99938.41
2022-11-17T16:52:19.472Z,99937.53
2022-11-17T16:57:40.463Z,99928.16
2022-11-17T17:03:02.153Z,99935.75
2022-11-17T17:08:23.224Z,99947.53
2022-11-17T17:13:43.925Z,99946.53
2022-11-17T17:19:07.108Z,99946.66
2022-11-17T17:24:28.390Z,99948.31
2022-11-17T17:29:49.375Z,99946.16
2022-11-17T17:35:10.002Z,99945.25
2022-11-17T17:40:30.854Z,99939.59
2022-11-17T17:45:53.803Z,99952.84
2022-11-17T17:51:20.376Z,99951.75
2022-11-17T17:56:41.255Z,99949.84
2022-11-17T18:02:02.566Z,99961.47
2022-11-17T18:07:23.146Z,99964.66
2022-11-17T18:12:44.023Z,99971.09
2022-11-17T18:18:04.680Z,99959.75
2022-11-17T18:23:28.875Z,99959.63
2022-11-17T18:28:52.773Z,99967.97
2022-11-17T18:34:20.646Z,99957.63
2022-11-17T18:39:41.573Z,99954.09
2022-11-17T18:45:02.482Z,99962.28
2022-11-17T18:50:23.280Z,99963.75
2022-11-17T18:55:44.074Z,99956.25
2022-11-17T19:01:16.369Z,99963.91
2022-11-17T19:06:37.431Z,99968.59
2022-11-17T19:11:58.282Z,99966.34
2022-11-17T19:17:19.271Z,99979.38
2022-11-17T19:22:39.948Z,99969.88
2022-11-17T19:28:00.619Z,99972.31
2022-11-17T19:33:21.331Z,99968.38
2022-11-17T19:38:43.171Z,99979.13
2022-11-17T19:44:06.853Z,99975.34
2022-11-17T19:49:27.568Z,99972.31
2022-11-17T19:54:48.277Z,99979.75
2022-11-17T20:00:09.999Z,99977.13
2022-11-17T20:05:50.644Z,99982.06
2022-11-17T20:11:20.496Z,99981.03
2022-11-17T20:16:41.417Z,99987.63
2022-11-17T20:22:02.243Z,99983.81
2022-11-17T20:27:22.922Z,99978.66
2022-11-17T20:32:43.593Z,99975.34
2022-11-17T20:38:04.535Z,99991.88
2022-11-17T20:43:26.621Z,99992.25
2022-11-17T20:48:48.266Z,99981.91
2022-11-17T20:54:09.291Z,99985.31
2022-11-17T20:59:30.006Z,99982.66
2022-11-17T21:04:50.761Z,99972.94
2022-11-17T21:10:11.540Z,99977.75
2022-11-17T21:15:32.348Z,99984.03
2022-11-17T21:20:55.992Z,99989.09
2022-11-17T21:26:17.120Z,99989.09
2022-11-17T21:31:38.268Z,99983.03
2022-11-17T21:36:59.066Z,99993.75
2022-11-17T21:42:19.949Z,99985.03
2022-11-17T21:47:40.828Z,99985.94
2022-11-17T21:53:01.496Z,99995.13
2022-11-17T21:58:22.644Z,99997.66
2022-11-17T22:03:43.734Z,99993.25
2022-11-17T22:09:04.772Z,100003.22
2022-11-17T22:14:25.800Z,100002.97
2022-11-17T22:19:46.791Z,100008.75
2022-11-17T22:25:37.429Z,100015.19
2022-11-17T22:30:51.382Z,100025.38
2022-11-17T22:36:13.863Z,100024.72
2022-11-17T22:41:35.022Z,100028.91
2022-11-17T22:46:55.954Z,100046.16
